SondeTracker

Meteorological Radiosondes Database

Operations

Sounding was ended - last measurement: 2022-12-06 12:58:43z

MAP
About Radiosonde

Number: D22035420 ([BC]22035420)

Launch Site:

Type: DFM

AUX: NO

Frequency: MHz

Max Speed: 174 km/h at 13414 m

Average Speed: 96.28 km/h

Max Altitude: 26820 m

Average Ascent Speed: 4.48 m/s

Average Descent Speed: 10.84 m/s

Status: UNKNOWN

Status Changes
Launch Site Type AUX Frequency Status Finder Landing Point Description Changes made by
APRS Statistics

Received Frames: 149

First Frame [UTC]: 2022-12-06 11:52:02z

Last Frame [UTC]: 2022-12-06 12:58:43z

Receivers: W4DEX-14

Flight Time: 01:06:41 h

Distance From First Measurement: 83.18 km

Nearest City: Harriman [TN] (US) [28.94 km]

Nearest Hunter: kb5ag [65.93 km]

Ground Altitude: 577 m

Distance from QTH: 0.00 km

APRS Data
Receiver Number Date/Time [UTC] φ λ Course [°] Speed [km/h] Altitude [m] Description
W4DEX-14D220354202022-12-06 12:58:4336.1852-84.62711001249863Clb=-12.5m/s Type=DFM17 ser=[BC]22035420 Details on http://radiosondy.info
W4DEX-14D220354202022-12-06 12:58:0436.1862-84.633910013010012Clb=-10.6m/s Type=DFM17 ser=[BC]22035420 Details on http://radiosondy.info
W4DEX-14D220354202022-12-06 12:57:2536.1874-84.641310013910225Clb=-10.3m/s Type=DFM17 ser=[BC]22035420 Details on http://radiosondy.info
W4DEX-14D220354202022-12-06 12:56:5736.1884-84.647610214410395Clb=-12.2m/s Type=DFM17 ser=[BC]22035420 Details on http://radiosondy.info
W4DEX-14D220354202022-12-06 12:56:3436.1894-84.654110114610573Clb=-13.0m/s Type=DFM17 ser=[BC]22035420 Details on http://radiosondy.info
W4DEX-14D220354202022-12-06 12:56:0636.1905-84.660810214810794Clb=-14.8m/s Type=DFM17 ser=[BC]22035420 Details on http://radiosondy.info
W4DEX-14D220354202022-12-06 12:55:4136.1916-84.667510414811002Clb=-13.2m/s Type=DFM17 ser=[BC]22035420 Details on http://radiosondy.info
W4DEX-14D220354202022-12-06 12:55:1136.1929-84.674210414811186Clb=-10.8m/s Type=DFM17 ser=[BC]22035420 Details on http://radiosondy.info
W4DEX-14D220354202022-12-06 12:54:4436.1941-84.680910215011352Clb=-11.0m/s Type=DFM17 ser=[BC]22035420 Details on http://radiosondy.info
W4DEX-14D220354202022-12-06 12:54:1936.1952-84.687710415911524Clb=-9.8m/s Type=DFM17 ser=[BC]22035420 Details on http://radiosondy.info
W4DEX-14D220354202022-12-06 12:53:5336.1963-84.69499915711702Clb=-13.1m/s Type=DFM17 ser=[BC]22035420 Details on http://radiosondy.info
W4DEX-14D220354202022-12-06 12:53:2536.1972-84.70219716311894Clb=-11.5m/s Type=DFM17 ser=[BC]22035420 Details on http://radiosondy.info
W4DEX-14D220354202022-12-06 12:52:5936.1981-84.709610016712075Clb=-11.9m/s Type=DFM17 ser=[BC]22035420 Details on http://radiosondy.info
W4DEX-14D220354202022-12-06 12:52:3336.1993-84.717110317012257Clb=-11.3m/s Type=DFM17 ser=[BC]22035420 Details on http://radiosondy.info
W4DEX-14D220354202022-12-06 12:51:5436.2009-84.724810616512430Clb=-12.9m/s Type=DFM17 ser=[BC]22035420 Details on http://radiosondy.info
W4DEX-14D220354202022-12-06 12:51:2636.2027-84.732110715612626Clb=-13.2m/s Type=DFM17 ser=[BC]22035420 Details on http://radiosondy.info
W4DEX-14D220354202022-12-06 12:50:5936.204-84.73919715912823Clb=-13.4m/s Type=DFM17 ser=[BC]22035420 Details on http://radiosondy.info
W4DEX-14D220354202022-12-06 12:50:3136.2044-84.74659216713005Clb=-11.4m/s Type=DFM17 ser=[BC]22035420 Details on http://radiosondy.info
W4DEX-14D220354202022-12-06 12:49:5736.2046-84.75429416713208Clb=-14.2m/s Type=DFM17 ser=[BC]22035420 Details on http://radiosondy.info
W4DEX-14D220354202022-12-06 12:49:2736.2053-84.76189917413414Clb=-13.0m/s Type=DFM17 ser=[BC]22035420 Details on http://radiosondy.info
W4DEX-14D220354202022-12-06 12:48:5436.2062-84.76989817413615Clb=-14.4m/s Type=DFM17 ser=[BC]22035420 Details on http://radiosondy.info
W4DEX-14D220354202022-12-06 12:48:2436.2071-84.77779816713821Clb=-13.8m/s Type=DFM17 ser=[BC]22035420 Details on http://radiosondy.info
W4DEX-14D220354202022-12-06 12:47:5136.208-84.78539915914033Clb=-14.6m/s Type=DFM17 ser=[BC]22035420 Details on http://radiosondy.info
W4DEX-14D220354202022-12-06 12:47:2136.2088-84.79269915614247Clb=-14.5m/s Type=DFM17 ser=[BC]22035420 Details on http://radiosondy.info
W4DEX-14D220354202022-12-06 12:46:5236.2097-84.799710115614464Clb=-13.6m/s Type=DFM17 ser=[BC]22035420 Details on http://radiosondy.info
W4DEX-14D220354202022-12-06 12:46:2736.2109-84.806710515414671Clb=-15.7m/s Type=DFM17 ser=[BC]22035420 Details on http://radiosondy.info
W4DEX-14D220354202022-12-06 12:45:5636.2123-84.813610515914873Clb=-12.9m/s Type=DFM17 ser=[BC]22035420 Details on http://radiosondy.info
W4DEX-14D220354202022-12-06 12:45:2636.2141-84.820610915415059Clb=-13.9m/s Type=DFM17 ser=[BC]22035420 Details on http://radiosondy.info
W4DEX-14D220354202022-12-06 12:44:5436.216-84.827311013515257Clb=-13.2m/s Type=DFM17 ser=[BC]22035420 Details on http://radiosondy.info
W4DEX-14D220354202022-12-06 12:44:2536.2175-84.833210612015467Clb=-13.0m/s Type=DFM17 ser=[BC]22035420 Details on http://radiosondy.info
W4DEX-14D220354202022-12-06 12:43:5936.2186-84.838610112015658Clb=-12.4m/s Type=DFM17 ser=[BC]22035420 Details on http://radiosondy.info
W4DEX-14D220354202022-12-06 12:43:5836.2192-84.84419913315848Clb=-12.2m/s Type=DFM17 ser=[BC]22035420 Details on http://radiosondy.info
W4DEX-14D220354202022-12-06 12:43:5136.22-84.850210214616041Clb=-13.3m/s Type=DFM17 ser=[BC]22035420 Details on http://radiosondy.info
W4DEX-14D220354202022-12-06 12:43:5036.2211-84.856810213716242Clb=-13.6m/s Type=DFM17 ser=[BC]22035420 Details on http://radiosondy.info
W4DEX-14D220354202022-12-06 12:43:4936.2222-84.86310412016445Clb=-13.3m/s Type=DFM17 ser=[BC]22035420 Details on http://radiosondy.info
W4DEX-14D220354202022-12-06 12:43:4836.2233-84.868310910616651Clb=-13.5m/s Type=DFM17 ser=[BC]22035420 Details on http://radiosondy.info
W4DEX-14D220354202022-12-06 12:43:4336.2246-84.87291119616850Clb=-12.9m/s Type=DFM17 ser=[BC]22035420 Details on http://radiosondy.info
W4DEX-14D220354202022-12-06 12:43:3436.2256-84.87711029417036Clb=-12.1m/s Type=DFM17 ser=[BC]22035420 Details on http://radiosondy.info
W4DEX-14D220354202022-12-06 12:43:2836.2262-84.8814969117217Clb=-13.6m/s Type=DFM17 ser=[BC]22035420 Details on http://radiosondy.info
W4DEX-14D220354202022-12-06 12:43:2036.2267-84.8856987817467Clb=-14.8m/s Type=DFM17 ser=[BC]22035420 Details on http://radiosondy.info
W4DEX-14D220354202022-12-06 12:43:0336.2266-84.88928010417724Clb=-17.7m/s Type=DFM17 ser=[BC]22035420 Details on http://radiosondy.info
W4DEX-14D220354202022-12-06 12:42:4236.2258-84.89398112017981Clb=-18.7m/s Type=DFM17 ser=[BC]22035420 Details on http://radiosondy.info
W4DEX-14D220354202022-12-06 12:42:1536.2252-84.89948712218257Clb=-19.9m/s Type=DFM17 ser=[BC]22035420 Details on http://radiosondy.info
W4DEX-14D220354202022-12-06 12:42:0036.2254-84.9059910718522Clb=-18.5m/s Type=DFM17 ser=[BC]22035420 Details on http://radiosondy.info
W4DEX-14D220354202022-12-06 12:41:5936.2263-84.9098986918784Clb=-15.1m/s Type=DFM17 ser=[BC]22035420 Details on http://radiosondy.info
W4DEX-14D220354202022-12-06 12:41:5636.2265-84.9129763919050Clb=-22.4m/s Type=DFM17 ser=[BC]22035420 Details on http://radiosondy.info
W4DEX-14D220354202022-12-06 12:41:5436.2262-84.9147914119332Clb=-15.7m/s Type=DFM17 ser=[BC]22035420 Details on http://radiosondy.info
W4DEX-14D220354202022-12-06 12:41:5336.2266-84.91651322419598Clb=-15.7m/s Type=DFM17 ser=[BC]22035420 Details on http://radiosondy.info
W4DEX-14D220354202022-12-06 12:41:5136.2272-84.91741072219856Clb=-17.2m/s Type=DFM17 ser=[BC]22035420 Details on http://radiosondy.info
W4DEX-14D220354202022-12-06 12:41:5036.2271-84.9183713920128Clb=-19.8m/s Type=DFM17 ser=[BC]22035420 Details on http://radiosondy.info
W4DEX-14D220354202022-12-06 12:41:4936.2265-84.92714420403Clb=-17.9m/s Type=DFM17 ser=[BC]22035420 Details on http://radiosondy.info
W4DEX-14D220354202022-12-06 12:41:4836.2262-84.922822820664Clb=-17.4m/s Type=DFM17 ser=[BC]22035420 Details on http://radiosondy.info
W4DEX-14D220354202022-12-06 12:41:4736.2259-84.9232714320924Clb=-12.8m/s Type=DFM17 ser=[BC]22035420 Details on http://radiosondy.info
W4DEX-14D220354202022-12-06 12:41:4636.2256-84.9252885421156Clb=-15.5m/s Type=DFM17 ser=[BC]22035420 Details on http://radiosondy.info
W4DEX-14D220354202022-12-06 12:41:4236.2256-84.9277906121419Clb=-18.9m/s Type=DFM17 ser=[BC]22035420 Details on http://radiosondy.info
W4DEX-14D220354202022-12-06 12:41:2736.2255-84.9304965021626Clb=-8.1m/s Type=DFM Details on http://radiosondy.info
W4DEX-14D220354202022-12-06 12:41:1136.2258-84.93271065221797Clb=-14.1m/s Type=DFM17 ser=[BC]22035420 Details on http://radiosondy.info
W4DEX-14D220354202022-12-06 12:40:5136.2265-84.9351155622073Clb=-21.1m/s Type=DFM17 ser=[BC]22035420 Details on http://radiosondy.info
W4DEX-14D220354202022-12-06 12:40:2436.2276-84.93721093522344Clb=-16.2m/s Type=DFM17 ser=[BC]22035420 Details on http://radiosondy.info
W4DEX-14D220354202022-12-06 12:39:5336.2277-84.9388714822588Clb=-19.7m/s Type=DFM17 ser=[BC]22035420 Details on http://radiosondy.info
W4DEX-14D220354202022-12-06 12:39:2236.2271-84.9409816322875Clb=-16.1m/s Type=DFM17 ser=[BC]22035420 Details on http://radiosondy.info
W4DEX-14D220354202022-12-06 12:38:4736.2263-84.9436765923141Clb=-18.2m/s Type=DFM17 ser=[BC]22035420 Details on http://radiosondy.info
W4DEX-14D220354202022-12-06 12:38:1536.2261-84.9464786123420Clb=-23.7m/s Type=DFM17 ser=[BC]22035420 Details on http://radiosondy.info
W4DEX-14D220354202022-12-06 12:37:3836.2257-84.9491815223696Clb=-19.6m/s Type=DFM17 ser=[BC]22035420 Details on http://radiosondy.info
W4DEX-14D220354202022-12-06 12:37:0336.2253-84.9515915223977Clb=-17.6m/s Type=DFM17 ser=[BC]22035420 Details on http://radiosondy.info
W4DEX-14D220354202022-12-06 12:36:3036.2254-84.9539855724234Clb=-19.1m/s Type=DFM17 ser=[BC]22035420 Details on http://radiosondy.info
W4DEX-14D220354202022-12-06 12:35:5836.2249-84.9565787024520Clb=-24.6m/s Type=DFM17 ser=[BC]22035420 Details on http://radiosondy.info
W4DEX-14D220354202022-12-06 12:35:2136.2247-84.9598847424810Clb=-17.0m/s Type=DFM17 ser=[BC]22035420 Details on http://radiosondy.info
W4DEX-14D220354202022-12-06 12:34:3836.2246-84.9632937625042Clb=-18.5m/s Type=DFM17 ser=[BC]22035420 Details on http://radiosondy.info
W4DEX-14D220354202022-12-06 12:33:5836.2248-84.9667978725327Clb=-15.2m/s Type=DFM17 ser=[BC]22035420 Details on http://radiosondy.info
W4DEX-14D220354202022-12-06 12:33:2236.2254-84.9706978025634Clb=-19.0m/s Type=DFM17 ser=[BC]22035420 Details on http://radiosondy.info
W4DEX-14D220354202022-12-06 12:32:3936.2152-85.1405898926820Clb=4.6m/s Type=DFM17 ser=[BC]22035420 Details on http://radiosondy.info
W4DEX-14D220354202022-12-06 12:31:5936.2155-85.1444958926709Clb=12.9m/s Type=DFM17 ser=[BC]22035420 Details on http://radiosondy.info
W4DEX-14D220354202022-12-06 12:31:2336.2156-85.1484678526598Clb=0.5m/s Type=DFM17 ser=[BC]22035420 Details on http://radiosondy.info
W4DEX-14D220354202022-12-06 12:30:4836.2154-85.1523848126499Clb=7.2m/s Type=DFM17 ser=[BC]22035420 Details on http://radiosondy.info
W4DEX-14D220354202022-12-06 12:30:1536.2152-85.1558907626401Clb=-1.4m/s Type=DFM17 ser=[BC]22035420 Details on http://radiosondy.info
W4DEX-14D220354202022-12-06 12:29:3836.2149-85.1596888926299Clb=6.4m/s Type=DFM17 ser=[BC]22035420 Details on http://radiosondy.info
W4DEX-14D220354202022-12-06 12:28:5736.2146-85.1641888526203Clb=2.2m/s Type=DFM17 ser=[BC]22035420 Details on http://radiosondy.info
W4DEX-14D220354202022-12-06 12:28:2536.2145-85.1681858726123Clb=-4.8m/s Type=DFM17 ser=[BC]22035420 Details on http://radiosondy.info
W4DEX-14D220354202022-12-06 12:27:4736.2145-85.17271008726005Clb=0.8m/s Type=DFM17 ser=[BC]22035420 Details on http://radiosondy.info
W4DEX-14D220354202022-12-06 12:27:1136.2146-85.1771029325913Clb=2.9m/s Type=DFM17 ser=[BC]22035420 Details on http://radiosondy.info
W4DEX-14D220354202022-12-06 12:26:4136.2148-85.1811028025830Clb=9.6m/s Type=DFM17 ser=[BC]22035420 Details on http://radiosondy.info
W4DEX-14D220354202022-12-06 12:26:1536.2151-85.18451168125743Clb=2.0m/s Type=DFM17 ser=[BC]22035420 Details on http://radiosondy.info
W4DEX-14D220354202022-12-06 12:25:3536.2154-85.18821128925658Clb=2.5m/s Type=DFM17 ser=[BC]22035420 Details on http://radiosondy.info
W4DEX-14D220354202022-12-06 12:24:5536.2159-85.19211059825560Clb=0.1m/s Type=DFM17 ser=[BC]22035420 Details on http://radiosondy.info
W4DEX-14D220354202022-12-06 12:24:2036.2163-85.1965788925480Clb=6.1m/s Type=DFM17 ser=[BC]22035420 Details on http://radiosondy.info
W4DEX-14D220354202022-12-06 12:23:3336.2166-85.2017797625337Clb=0.2m/s Type=DFM17 ser=[BC]22035420 Details on http://radiosondy.info
W4DEX-14D220354202022-12-06 12:22:5536.2168-85.20541098025251Clb=5.0m/s Type=DFM17 ser=[BC]22035420 Details on http://radiosondy.info
W4DEX-14D220354202022-12-06 12:22:1636.2169-85.2087758125150Clb=3.0m/s Type=DFM17 ser=[BC]22035420 Details on http://radiosondy.info
W4DEX-14D220354202022-12-06 12:21:4036.2167-85.2129768025055Clb=5.3m/s Type=DFM17 ser=[BC]22035420 Details on http://radiosondy.info
W4DEX-14D220354202022-12-06 12:21:0136.2165-85.2165877624960Clb=7.7m/s Type=DFM Details on http://radiosondy.info
W4DEX-14D220354202022-12-06 12:20:1836.2163-85.2199877824863Clb=6.8m/s Type=DFM17 ser=[BC]22035420 Details on http://radiosondy.info
W4DEX-14D220354202022-12-06 12:19:1436.2162-85.2234827024765Clb=7.7m/s Type=DFM17 ser=[BC]22035420 Details on http://radiosondy.info
W4DEX-14D220354202022-12-06 12:18:3836.216-85.2266588024653Clb=3.4m/s Type=DFM17 ser=[BC]22035420 Details on http://radiosondy.info
W4DEX-14D220354202022-12-06 12:17:5636.2151-85.2301856924542Clb=3.7m/s Type=DFM17 ser=[BC]22035420 Details on http://radiosondy.info
W4DEX-14D220354202022-12-06 12:17:2436.2143-85.2327675924439Clb=3.3m/s Type=DFM17 ser=[BC]22035420 Details on http://radiosondy.info
W4DEX-14D220354202022-12-06 12:16:5236.2139-85.23541095224325Clb=3.4m/s Type=DFM17 ser=[BC]22035420 Details on http://radiosondy.info
W4DEX-14D220354202022-12-06 12:16:2036.2137-85.238825624214Clb=2.4m/s Type=DFM17 ser=[BC]22035420 Details on http://radiosondy.info
W4DEX-14D220354202022-12-06 12:15:5936.2139-85.2407805724109Clb=-0.3m/s Type=DFM17 ser=[BC]22035420 Details on http://radiosondy.info
W4DEX-14D220354202022-12-06 12:15:5836.2137-85.2436995923986Clb=4.3m/s Type=DFM17 ser=[BC]22035420 Details on http://radiosondy.info
W4DEX-14D220354202022-12-06 12:15:5636.2133-85.2464595223895Clb=7.3m/s Type=DFM17 ser=[BC]22035420 Details on http://radiosondy.info
W4DEX-14D220354202022-12-06 12:15:5536.2128-85.2485755423802Clb=1.6m/s Type=DFM17 ser=[BC]22035420 Details on http://radiosondy.info
W4DEX-14D220354202022-12-06 12:15:5436.2123-85.2509945923713Clb=3.3m/s Type=DFM17 ser=[BC]22035420 Details on http://radiosondy.info
W4DEX-14D220354202022-12-06 12:15:5236.212-85.2533676123624Clb=2.2m/s Type=DFM17 ser=[BC]22035420 Details on http://radiosondy.info
W4DEX-14D220354202022-12-06 12:15:5036.2114-85.2563565723542Clb=5.1m/s Type=DFM17 ser=[BC]22035420 Details on http://radiosondy.info
W4DEX-14D220354202022-12-06 12:15:4836.2109-85.259936123438Clb=0.1m/s Type=DFM17 ser=[BC]22035420 Details on http://radiosondy.info
W4DEX-14D220354202022-12-06 12:15:4736.2105-85.2617815923370Clb=10.8m/s Type=DFM17 ser=[BC]22035420 Details on http://radiosondy.info
W4DEX-14D220354202022-12-06 12:15:4536.2105-85.2643916123279Clb=3.5m/s Type=DFM17 ser=[BC]22035420 Details on http://radiosondy.info
W4DEX-14D220354202022-12-06 12:15:3536.2099-85.2671885723207Clb=2.6m/s Type=DFM17 ser=[BC]22035420 Details on http://radiosondy.info
W4DEX-14D220354202022-12-06 12:15:2536.2091-85.2694206323130Clb=2.3m/s Type=DFM17 ser=[BC]22035420 Details on http://radiosondy.info
W4DEX-14D220354202022-12-06 12:15:1036.2079-85.2717636123036Clb=3.3m/s Type=DFM17 ser=[BC]22035420 Details on http://radiosondy.info
W4DEX-14D220354202022-12-06 12:14:5536.2068-85.2739834622946Clb=-0.7m/s Type=DFM17 ser=[BC]22035420 Details on http://radiosondy.info
W4DEX-14D220354202022-12-06 12:14:2436.2062-85.276295022865Clb=3.8m/s Type=DFM17 ser=[BC]22035420 Details on http://radiosondy.info
W4DEX-14D220354202022-12-06 12:13:5336.2055-85.278655422794Clb=6.2m/s Type=DFM17 ser=[BC]22035420 Details on http://radiosondy.info
W4DEX-14D220354202022-12-06 12:13:2536.2052-85.2802655022704Clb=5.2m/s Type=DFM17 ser=[BC]22035420 Details on http://radiosondy.info
W4DEX-14D220354202022-12-06 12:12:4536.2047-85.282653322601Clb=1.5m/s Type=DFM17 ser=[BC]22035420 Details on http://radiosondy.info
W4DEX-14D220354202022-12-06 12:12:1136.2042-85.2832463522516Clb=4.0m/s Type=DFM17 ser=[BC]22035420 Details on http://radiosondy.info
W4DEX-14D220354202022-12-06 12:11:3736.2039-85.28441363022419Clb=2.3m/s Type=DFM17 ser=[BC]22035420 Details on http://radiosondy.info
W4DEX-14D220354202022-12-06 12:11:0236.2041-85.28581143722327Clb=4.0m/s Type=DFM17 ser=[BC]22035420 Details on http://radiosondy.info
W4DEX-14D220354202022-12-06 12:09:5736.2088-85.39928812018261Clb=-0.2m/s Type=DFM17 ser=[BC]22035420 Details on http://radiosondy.info
W4DEX-14D220354202022-12-06 12:09:1336.2082-85.4058011918179Clb=8.4m/s Type=DFM17 ser=[BC]22035420 Details on http://radiosondy.info
W4DEX-14D220354202022-12-06 12:08:3636.2072-85.41037712018091Clb=7.6m/s Type=DFM17 ser=[BC]22035420 Details on http://radiosondy.info
W4DEX-14D220354202022-12-06 12:07:5236.2059-85.41576811117995Clb=3.9m/s Type=DFM17 ser=[BC]22035420 Details on http://radiosondy.info
W4DEX-14D220354202022-12-06 12:07:1136.2048-85.42097910617906Clb=1.2m/s Type=DFM17 ser=[BC]22035420 Details on http://radiosondy.info
W4DEX-14D220354202022-12-06 12:06:4136.204-85.4254868717830Clb=7.4m/s Type=DFM17 ser=[BC]22035420 Details on http://radiosondy.info
W4DEX-14D220354202022-12-06 12:06:0536.2034-85.4297847817741Clb=5.7m/s Type=DFM17 ser=[BC]22035420 Details on http://radiosondy.info
W4DEX-14D220354202022-12-06 12:05:2936.2033-85.4331929317649Clb=3.7m/s Type=DFM17 ser=[BC]22035420 Details on http://radiosondy.info
W4DEX-14D220354202022-12-06 12:04:4836.2035-85.43721077217573Clb=3.2m/s Type=DFM17 ser=[BC]22035420 Details on http://radiosondy.info
W4DEX-14D220354202022-12-06 12:04:0936.204-85.44071078017499Clb=2.6m/s Type=DFM17 ser=[BC]22035420 Details on http://radiosondy.info
W4DEX-14D220354202022-12-06 12:03:3236.2048-85.4445918917419Clb=6.5m/s Type=DFM17 ser=[BC]22035420 Details on http://radiosondy.info
W4DEX-14D220354202022-12-06 12:02:5736.2056-85.44841039817339Clb=6.7m/s Type=DFM17 ser=[BC]22035420 Details on http://radiosondy.info
W4DEX-14D220354202022-12-06 12:02:2236.2065-85.452911511317260Clb=2.7m/s Type=DFM17 ser=[BC]22035420 Details on http://radiosondy.info
W4DEX-14D220354202022-12-06 12:01:5136.2074-85.4581029317201Clb=3.8m/s Type=DFM17 ser=[BC]22035420 Details on http://radiosondy.info
W4DEX-14D220354202022-12-06 12:01:1836.2081-85.4625989817122Clb=0.9m/s Type=DFM17 ser=[BC]22035420 Details on http://radiosondy.info
W4DEX-14D220354202022-12-06 12:00:4536.2089-85.467310510617026Clb=2.4m/s Type=DFM17 ser=[BC]22035420 Details on http://radiosondy.info
W4DEX-14D220354202022-12-06 12:00:0636.2098-85.472410910916951Clb=6.7m/s Type=DFM17 ser=[BC]22035420 Details on http://radiosondy.info
W4DEX-14D220354202022-12-06 11:59:2336.2111-85.477410411716860Clb=8.1m/s Type=DFM17 ser=[BC]22035420 Details on http://radiosondy.info
W4DEX-14D220354202022-12-06 11:58:4536.2128-85.482211612016789Clb=2.2m/s Type=DFM17 ser=[BC]22035420 Details on http://radiosondy.info
W4DEX-14D220354202022-12-06 11:58:0336.2143-85.487411112016709Clb=4.9m/s Type=DFM17 ser=[BC]22035420 Details on http://radiosondy.info
W4DEX-14D220354202022-12-06 11:57:2636.2155-85.492911112616643Clb=7.9m/s Type=DFM17 ser=[BC]22035420 Details on http://radiosondy.info
W4DEX-14D220354202022-12-06 11:56:5536.2168-85.498610813716556Clb=6.7m/s Type=DFM17 ser=[BC]22035420 Details on http://radiosondy.info
W4DEX-14D220354202022-12-06 11:56:2336.2178-85.504710814416486Clb=2.7m/s Type=DFM17 ser=[BC]22035420 Details on http://radiosondy.info
W4DEX-14D220354202022-12-06 11:55:5036.2189-85.51169514816424Clb=9.4m/s Type=DFM17 ser=[BC]22035420 Details on http://radiosondy.info
W4DEX-14D220354202022-12-06 11:55:1736.2199-85.51859915716331Clb=-0.4m/s Type=DFM17 ser=[BC]22035420 Details on http://radiosondy.info
W4DEX-14D220354202022-12-06 11:54:4236.221-85.525410115416268Clb=-0.2m/s Type=DFM Details on http://radiosondy.info
W4DEX-14D220354202022-12-06 11:54:0336.2219-85.53219014416186Clb=8.4m/s Type=DFM Details on http://radiosondy.info
W4DEX-14D220354202022-12-06 11:53:2336.2226-85.53969614116100Clb=4.0m/s Type=DFM Details on http://radiosondy.info
W4DEX-14D220354202022-12-06 11:52:4036.2235-85.546410514315994Clb=3.9m/s Type=DFM Details on http://radiosondy.info
W4DEX-14D220354202022-12-06 11:52:0236.2242-85.55298812615905Clb=6.3m/s Type=DFM Details on http://radiosondy.info